Time;durP1;ratioP1;P1;durP2;ratioP2;P2;SDS_P1;SDS_P2;PMS_P1;PMS_P2;Temp;Humidity;BMP_temperature;BMP_pressure;BME280_temperature;BME280_humidity;BME280_pressure;Samples;Min_cycle;Max_cycle;Signal;HPM_P1;HPM_P2
2023/07/20 00:00:27;;;;;;;2.30;0.85;;;15.10;99.90;;;;;;6234799;23;20012;-81
2023/07/20 00:02:52;;;;;;;1.90;0.68;;;15.10;99.90;;;;;;6235104;23;20344;-81
2023/07/20 00:05:21;;;;;;;2.17;0.70;;;15.10;99.90;;;;;;6236102;22;20008;-81
2023/07/20 00:07:46;;;;;;;1.60;0.80;;;15.00;99.90;;;;;;6236169;22;20092;-80
2023/07/20 00:10:12;;;;;;;1.30;0.95;;;15.00;99.90;;;;;;6236465;22;20012;-81
2023/07/20 00:12:37;;;;;;;3.05;1.20;;;15.00;99.90;;;;;;6234838;23;20011;-81
2023/07/20 00:15:04;;;;;;;1.35;1.00;;;14.90;99.90;;;;;;6236405;22;20450;-81
2023/07/20 00:17:29;;;;;;;2.97;0.93;;;14.90;99.90;;;;;;6234134;23;20090;-80
2023/07/20 00:19:55;;;;;;;2.15;0.82;;;14.90;99.90;;;;;;6233956;23;20004;-80
2023/07/20 00:22:20;;;;;;;2.88;1.30;;;14.80;99.90;;;;;;6234610;22;20031;-80
2023/07/20 00:24:46;;;;;;;3.13;1.02;;;14.80;99.90;;;;;;6235627;22;20062;-79
2023/07/20 00:27:12;;;;;;;3.13;1.23;;;14.70;99.90;;;;;;6235763;22;20015;-81
2023/07/20 00:29:37;;;;;;;2.10;1.10;;;14.70;99.90;;;;;;6233648;23;20103;-81
2023/07/20 00:32:04;;;;;;;1.30;0.90;;;14.60;99.90;;;;;;6235995;22;20118;-80
2023/07/20 00:34:31;;;;;;;4.15;1.00;;;14.50;99.90;;;;;;6234994;22;20519;-80
2023/07/20 00:36:56;;;;;;;3.38;1.00;;;14.40;99.90;;;;;;6233524;23;20047;-80
2023/07/20 00:39:22;;;;;;;2.28;1.00;;;14.30;99.90;;;;;;6233245;23;20004;-80
2023/07/20 00:41:47;;;;;;;2.72;1.00;;;14.20;99.90;;;;;;6234050;23;20561;-81
2023/07/20 00:44:13;;;;;;;3.47;0.93;;;14.20;99.90;;;;;;6233468;23;20008;-80
2023/07/20 00:46:41;;;;;;;3.08;1.02;;;14.10;99.90;;;;;;6232144;23;20066;-79
2023/07/20 00:49:07;;;;;;;2.80;1.38;;;14.10;99.90;;;;;;6235297;22;20008;-80
2023/07/20 00:51:33;;;;;;;2.88;1.23;;;14.10;99.90;;;;;;6234324;23;20044;-79
2023/07/20 00:53:59;;;;;;;1.95;1.00;;;14.10;99.90;;;;;;6235572;22;20478;-81
2023/07/20 00:56:24;;;;;;;2.30;1.00;;;14.00;99.90;;;;;;6234613;23;20015;-80
2023/07/20 00:58:52;;;;;;;1.02;0.82;;;14.00;99.90;;;;;;6232916;23;20011;-80
2023/07/20 01:01:17;;;;;;;3.28;1.33;;;14.00;99.90;;;;;;6236000;22;20052;-81
2023/07/20 01:03:43;;;;;;;1.80;0.98;;;14.00;99.90;;;;;;6234491;23;20019;-81
2023/07/20 01:06:20;;;;;;;5.53;1.10;;;13.90;99.90;;;;;;6233647;23;20012;-81
2023/07/20 01:09:04;;;;;;;3.83;1.10;;;13.90;99.90;;;;;;6234740;23;20012;-80
2023/07/20 01:11:43;;;;;;;2.40;1.13;;;13.80;99.90;;;;;;6235753;22;20004;-80
2023/07/20 01:14:09;;;;;;;2.55;1.00;;;13.80;99.90;;;;;;6234079;23;20008;-81
2023/07/20 01:16:34;;;;;;;1.30;1.00;;;13.70;99.90;;;;;;6235543;22;20035;-81
2023/07/20 01:19:00;;;;;;;1.60;0.98;;;13.70;99.90;;;;;;6234182;23;20012;-80
2023/07/20 01:21:37;;;;;;;2.13;1.10;;;13.80;99.90;;;;;;6235562;22;20015;-81
2023/07/20 01:24:24;;;;;;;4.82;1.10;;;13.70;99.90;;;;;;6234369;22;20000;-80
2023/07/20 01:27:01;;;;;;;2.90;1.17;;;13.70;99.90;;;;;;6233678;23;20027;-81
2023/07/20 01:29:48;;;;;;;1.92;1.20;;;13.70;99.90;;;;;;6234664;23;20012;-81
2023/07/20 01:32:17;;;;;;;5.60;1.15;;;13.60;99.90;;;;;;6236300;22;20008;-81
2023/07/20 01:34:44;;;;;;;1.67;1.13;;;13.60;99.90;;;;;;6231670;22;20416;-81
2023/07/20 01:37:11;;;;;;;3.78;1.25;;;13.50;99.90;;;;;;6230274;23;20008;-80
2023/07/20 01:39:38;;;;;;;2.53;1.27;;;13.50;99.90;;;;;;6231839;22;20316;-80
2023/07/20 01:42:04;;;;;;;2.72;1.10;;;13.50;99.90;;;;;;6233980;22;20016;-81
2023/07/20 01:44:30;;;;;;;2.53;1.15;;;13.50;99.90;;;;;;6233231;22;20018;-81
2023/07/20 01:46:56;;;;;;;2.42;1.10;;;13.60;99.90;;;;;;6230364;22;20016;-79
2023/07/20 01:49:21;;;;;;;3.40;1.17;;;13.60;99.90;;;;;;6232188;22;20379;-80
2023/07/20 01:51:47;;;;;;;2.95;1.10;;;13.60;99.90;;;;;;6233842;22;20035;-80
2023/07/20 01:54:13;;;;;;;1.65;1.27;;;13.70;99.90;;;;;;6234165;22;20085;-80
2023/07/20 01:56:39;;;;;;;4.28;1.20;;;13.80;99.90;;;;;;6233810;22;20008;-80
2023/07/20 01:59:05;;;;;;;1.90;1.20;;;13.90;99.90;;;;;;6233546;22;20032;-80
2023/07/20 02:01:30;;;;;;;2.17;1.02;;;13.90;99.90;;;;;;6232734;22;20344;-80
2023/07/20 02:03:56;;;;;;;3.90;1.25;;;14.00;99.90;;;;;;6232861;22;20000;-80
2023/07/20 02:06:21;;;;;;;3.33;1.33;;;14.00;99.90;;;;;;6230906;23;20019;-80
2023/07/20 02:08:47;;;;;;;2.90;1.10;;;14.00;99.90;;;;;;6232336;22;20010;-79
2023/07/20 02:11:12;;;;;;;3.72;1.02;;;14.10;99.90;;;;;;6233084;22;20008;-80
2023/07/20 02:13:38;;;;;;;2.78;1.30;;;14.10;99.90;;;;;;6231645;22;20026;-80
2023/07/20 02:16:05;;;;;;;2.53;1.25;;;14.00;99.90;;;;;;6233254;22;20082;-80
2023/07/20 02:18:30;;;;;;;2.75;1.10;;;14.00;99.90;;;;;;6232469;22;20392;-80
2023/07/20 02:20:56;;;;;;;3.17;1.20;;;13.90;99.90;;;;;;6233888;22;20015;-80
2023/07/20 02:23:21;;;;;;;2.67;1.27;;;13.90;99.90;;;;;;6232699;23;20099;-79
2023/07/20 02:25:47;;;;;;;2.50;1.30;;;13.80;99.90;;;;;;6234004;22;20031;-80
2023/07/20 02:28:16;;;;;;;4.90;1.23;;;13.80;99.90;;;;;;6233304;22;20223;-79
2023/07/20 02:30:41;;;;;;;3.55;1.23;;;13.80;99.90;;;;;;6233000;22;20017;-80
2023/07/20 02:33:07;;;;;;;1.42;1.08;;;13.70;99.90;;;;;;6233764;22;20432;-80
2023/07/20 02:35:33;;;;;;;4.70;1.30;;;13.70;99.90;;;;;;6235539;22;20012;-80
2023/07/20 02:37:59;;;;;;;4.63;1.20;;;13.60;99.90;;;;;;6234634;22;20573;-80
2023/07/20 02:40:24;;;;;;;3.17;1.23;;;13.50;99.90;;;;;;6235538;22;20327;-80
2023/07/20 02:42:50;;;;;;;2.63;1.30;;;13.60;99.90;;;;;;6236104;22;20000;-80
2023/07/20 02:45:16;;;;;;;2.38;1.20;;;13.50;99.90;;;;;;6234884;23;20066;-79
2023/07/20 02:47:42;;;;;;;2.45;1.40;;;13.60;99.90;;;;;;6235447;22;20534;-80
2023/07/20 02:50:08;;;;;;;3.72;1.45;;;13.50;99.90;;;;;;6236130;22;20009;-80
2023/07/20 02:52:34;;;;;;;3.00;1.40;;;13.60;99.90;;;;;;6236072;22;20095;-80
2023/07/20 02:54:59;;;;;;;3.97;1.35;;;13.50;99.90;;;;;;6234401;23;20122;-79
2023/07/20 02:57:25;;;;;;;2.35;1.50;;;13.50;99.90;;;;;;6235395;23;20008;-80
2023/07/20 02:59:51;;;;;;;2.20;1.33;;;13.50;99.90;;;;;;6234093;23;20050;-80
2023/07/20 03:02:16;;;;;;;3.78;1.10;;;13.40;99.90;;;;;;6235085;22;20016;-80
2023/07/20 03:04:42;;;;;;;1.52;1.15;;;13.40;99.90;;;;;;6232952;23;20376;-79
2023/07/20 03:07:07;;;;;;;4.07;1.38;;;13.40;99.90;;;;;;6236701;22;20079;-80
2023/07/20 03:09:33;;;;;;;3.65;1.15;;;13.30;99.90;;;;;;6235888;22;20066;-80
2023/07/20 03:11:59;;;;;;;2.40;1.50;;;13.30;99.90;;;;;;6237255;22;20000;-79
2023/07/20 03:14:24;;;;;;;5.15;1.30;;;13.20;99.90;;;;;;6235721;22;20004;-80
2023/07/20 03:16:50;;;;;;;2.47;1.10;;;13.10;99.90;;;;;;6233978;22;20004;-80
2023/07/20 03:19:16;;;;;;;2.08;1.25;;;13.10;99.90;;;;;;6234917;22;20314;-80
2023/07/20 03:21:42;;;;;;;4.38;1.40;;;13.10;99.90;;;;;;6239405;22;20178;-81
2023/07/20 03:24:08;;;;;;;2.38;1.33;;;13.10;99.90;;;;;;6234412;23;20326;-80
2023/07/20 03:26:34;;;;;;;3.05;1.50;;;13.10;99.90;;;;;;6232771;23;20004;-81
2023/07/20 03:29:00;;;;;;;2.17;1.23;;;13.10;99.90;;;;;;6236243;22;20004;-81
2023/07/20 03:31:26;;;;;;;3.70;1.80;;;13.10;99.90;;;;;;6234874;22;20078;-81
2023/07/20 03:33:52;;;;;;;1.92;1.10;;;13.20;99.90;;;;;;6233969;22;20020;-80
2023/07/20 03:36:17;;;;;;;3.45;1.40;;;13.30;99.90;;;;;;6233766;23;20004;-80
2023/07/20 03:38:43;;;;;;;2.85;1.35;;;13.40;99.90;;;;;;6234121;23;20008;-81
2023/07/20 03:41:09;;;;;;;2.75;1.40;;;13.40;99.90;;;;;;6235564;22;20020;-81
2023/07/20 03:43:34;;;;;;;2.70;1.83;;;13.40;99.90;;;;;;6235421;22;20445;-81
2023/07/20 03:46:00;;;;;;;3.80;1.10;;;13.40;99.90;;;;;;6232960;22;20110;-80
2023/07/20 03:48:26;;;;;;;1.75;1.40;;;13.40;99.90;;;;;;6231431;23;20074;-81
2023/07/20 03:50:54;;;;;;;3.25;1.38;;;13.50;99.90;;;;;;6235236;22;20062;-81
2023/07/20 03:53:19;;;;;;;2.45;1.30;;;13.50;99.90;;;;;;6231405;23;20474;-81
2023/07/20 03:55:50;;;;;;;3.75;1.33;;;13.60;99.90;;;;;;6233279;22;20008;-81
2023/07/20 03:58:16;;;;;;;2.97;1.48;;;13.60;99.90;;;;;;6232622;22;20000;-81
2023/07/20 04:00:50;;;;;;;3.17;1.67;;;13.60;99.90;;;;;;6231350;22;20416;-81
2023/07/20 04:03:16;;;;;;;1.60;1.35;;;13.70;99.90;;;;;;6234091;22;20121;-81
2023/07/20 04:05:43;;;;;;;2.10;1.50;;;13.70;99.90;;;;;;6232671;23;20008;-81
2023/07/20 04:08:09;;;;;;;3.60;1.20;;;13.70;99.90;;;;;;6234543;22;20011;-81
2023/07/20 04:10:35;;;;;;;2.22;1.60;;;13.70;99.90;;;;;;6234002;22;20010;-81
2023/07/20 04:13:01;;;;;;;2.90;1.25;;;13.60;99.90;;;;;;6233764;22;20069;-81
2023/07/20 04:15:26;;;;;;;2.13;1.67;;;13.60;99.90;;;;;;6233766;22;20087;-81
2023/07/20 04:17:52;;;;;;;2.35;1.38;;;13.50;99.90;;;;;;6232404;22;20099;-81
2023/07/20 04:20:18;;;;;;;3.30;1.17;;;13.40;99.90;;;;;;6229339;22;20008;-80
2023/07/20 04:22:43;;;;;;;3.13;1.70;;;13.40;99.90;;;;;;6232311;22;20036;-80
2023/07/20 04:25:09;;;;;;;3.35;1.48;;;13.30;99.90;;;;;;6229803;22;20019;-80
2023/07/20 04:27:36;;;;;;;1.85;1.52;;;13.30;99.90;;;;;;6230158;22;20008;-81
2023/07/20 04:30:02;;;;;;;2.17;1.20;;;13.20;99.90;;;;;;6230954;22;20098;-81
2023/07/20 04:32:27;;;;;;;1.38;1.15;;;13.20;99.90;;;;;;6231551;22;20477;-80
2023/07/20 04:34:53;;;;;;;4.10;1.38;;;13.10;99.90;;;;;;6228061;23;20035;-80
2023/07/20 04:37:19;;;;;;;3.22;1.40;;;13.10;99.90;;;;;;6230138;22;20713;-80
2023/07/20 04:39:44;;;;;;;4.63;1.63;;;13.00;99.90;;;;;;6231477;22;20011;-81
2023/07/20 04:42:10;;;;;;;1.80;1.30;;;13.00;99.90;;;;;;6227866;23;20043;-81
2023/07/20 04:44:35;;;;;;;2.72;1.55;;;12.90;99.90;;;;;;6231059;22;20010;-81
2023/07/20 04:47:02;;;;;;;2.10;1.30;;;12.90;99.90;;;;;;6233688;22;20015;-80
2023/07/20 04:49:27;;;;;;;2.15;1.20;;;12.90;99.90;;;;;;6233640;22;20000;-80
2023/07/20 04:51:54;;;;;;;2.33;1.40;;;12.90;99.90;;;;;;6234522;22;20373;-81
2023/07/20 04:54:20;;;;;;;3.70;1.50;;;12.90;99.90;;;;;;6232784;22;20000;-82
2023/07/20 04:56:45;;;;;;;1.50;1.30;;;13.00;99.90;;;;;;6233224;22;20320;-81
2023/07/20 04:59:11;;;;;;;3.45;1.40;;;13.00;99.90;;;;;;6233146;22;20062;-81
2023/07/20 05:01:37;;;;;;;2.75;1.30;;;13.00;99.90;;;;;;6231987;22;20039;-81
2023/07/20 05:04:02;;;;;;;3.67;1.50;;;13.00;99.90;;;;;;6229615;22;20010;-80
2023/07/20 05:06:28;;;;;;;2.45;1.70;;;13.10;99.90;;;;;;6229067;22;20000;-81
2023/07/20 05:08:54;;;;;;;2.10;1.70;;;13.10;99.90;;;;;;6232174;22;20054;-80
2023/07/20 05:11:20;;;;;;;4.43;1.85;;;13.20;99.90;;;;;;6233117;22;20008;-80
2023/07/20 05:13:45;;;;;;;2.38;1.50;;;13.20;99.90;;;;;;6229275;22;20007;-81
2023/07/20 05:16:11;;;;;;;1.67;1.38;;;13.20;99.90;;;;;;6230417;23;20393;-80
2023/07/20 05:18:36;;;;;;;3.90;1.73;;;13.20;99.90;;;;;;6230795;23;20436;-79
2023/07/20 05:21:02;;;;;;;5.05;1.45;;;13.30;99.90;;;;;;6231058;23;20024;-80
2023/07/20 05:23:28;;;;;;;2.55;1.40;;;13.30;99.90;;;;;;6229179;23;20364;-79
2023/07/20 05:25:57;;;;;;;3.22;1.77;;;13.40;99.90;;;;;;6232030;22;20097;-79
2023/07/20 05:28:23;;;;;;;4.15;2.58;;;13.50;99.90;;;;;;6231448;23;20011;-81
2023/07/20 05:30:51;;;;;;;3.13;1.95;;;13.50;99.90;;;;;;6234010;22;20419;-81
2023/07/20 05:33:17;;;;;;;1.88;1.50;;;13.60;99.90;;;;;;6233630;22;20000;-80
2023/07/20 05:35:43;;;;;;;3.15;1.58;;;13.60;99.90;;;;;;6233523;22;20027;-81
2023/07/20 05:38:09;;;;;;;1.98;1.60;;;13.70;99.90;;;;;;6234050;22;20650;-81
2023/07/20 05:40:39;;;;;;;1.70;1.30;;;13.80;99.90;;;;;;6232975;22;20008;-80
2023/07/20 05:43:05;;;;;;;2.33;1.58;;;13.90;99.90;;;;;;6232719;22;20427;-81
2023/07/20 05:45:30;;;;;;;1.92;1.50;;;14.00;99.90;;;;;;6232885;22;20012;-80
2023/07/20 05:47:56;;;;;;;2.95;1.73;;;14.10;99.90;;;;;;6232191;22;20023;-80
2023/07/20 05:50:21;;;;;;;2.88;1.63;;;14.20;99.90;;;;;;6230938;23;20503;-81
2023/07/20 05:52:47;;;;;;;2.45;1.23;;;14.20;99.90;;;;;;6229259;23;20027;-80
2023/07/20 05:55:13;;;;;;;3.00;1.60;;;14.40;99.90;;;;;;6229600;22;20047;-80
2023/07/20 05:57:43;;;;;;;1.90;1.30;;;14.40;99.90;;;;;;6232690;22;20004;-81
2023/07/20 06:00:09;;;;;;;2.30;1.60;;;14.50;99.90;;;;;;6231762;23;20015;-80
2023/07/20 06:02:35;;;;;;;1.60;1.30;;;14.60;99.90;;;;;;6229961;22;20448;-80
2023/07/20 06:05:01;;;;;;;3.08;1.60;;;14.70;99.90;;;;;;6229205;23;20042;-80
2023/07/20 06:07:26;;;;;;;1395.53;825.13;;;14.80;99.90;;;;;;6230945;23;20015;-80
2023/07/20 06:09:52;;;;;;;210.98;108.45;;;14.90;99.90;;;;;;6236215;22;20015;-80
2023/07/20 06:12:18;;;;;;;33.35;20.02;;;14.90;99.90;;;;;;6232131;22;20034;-80
2023/07/20 06:14:43;;;;;;;9.55;5.32;;;15.00;99.90;;;;;;6232033;22;20428;-80
2023/07/20 06:17:09;;;;;;;3.25;1.90;;;15.10;99.90;;;;;;6231509;22;20270;-80
2023/07/20 06:19:35;;;;;;;5.00;1.92;;;15.20;99.90;;;;;;6234415;22;20008;-81
2023/07/20 06:22:00;;;;;;;3.63;1.48;;;15.30;99.90;;;;;;6234128;22;20016;-80
2023/07/20 06:24:26;;;;;;;2.42;1.70;;;15.40;99.90;;;;;;6231790;22;20065;-80
2023/07/20 06:26:52;;;;;;;18.08;12.40;;;15.50;99.90;;;;;;6228258;23;20015;-80
2023/07/20 06:29:17;;;;;;;6.72;4.22;;;15.60;99.90;;;;;;6232511;22;20011;-80
2023/07/20 06:31:43;;;;;;;2.65;1.55;;;15.70;99.90;;;;;;6229234;22;20039;-80
2023/07/20 06:34:09;;;;;;;3.90;1.80;;;15.80;99.90;;;;;;6230395;22;20093;-80
2023/07/20 06:36:35;;;;;;;4.72;1.50;;;15.90;99.90;;;;;;6230101;22;20007;-81
2023/07/20 06:39:00;;;;;;;2.92;1.77;;;16.00;99.90;;;;;;6228724;23;20004;-80
2023/07/20 06:41:26;;;;;;;146.10;84.03;;;16.10;99.90;;;;;;6229218;22;20028;-80
2023/07/20 06:43:52;;;;;;;38.42;20.63;;;16.10;99.90;;;;;;6228722;22;20008;-79
2023/07/20 06:46:18;;;;;;;3.53;2.42;;;16.30;99.90;;;;;;6231742;22;20020;-81
2023/07/20 06:48:43;;;;;;;2.45;1.90;;;16.40;99.90;;;;;;6231470;22;20075;-80
2023/07/20 06:51:09;;;;;;;3.17;1.55;;;16.50;99.90;;;;;;6230829;23;20008;-81
2023/07/20 06:53:34;;;;;;;2.97;1.60;;;16.70;99.90;;;;;;6233143;22;20015;-81
2023/07/20 06:56:00;;;;;;;3.00;2.40;;;16.80;99.90;;;;;;6232955;22;20015;-80
2023/07/20 06:58:25;;;;;;;7.18;5.38;;;16.90;99.90;;;;;;6234897;22;20070;-80
2023/07/20 07:00:51;;;;;;;2.30;1.55;;;16.90;99.90;;;;;;6234212;22;20012;-80
2023/07/20 07:03:17;;;;;;;3.60;1.70;;;17.10;99.90;;;;;;6231247;22;20010;-80
2023/07/20 07:05:46;;;;;;;2.33;1.52;;;17.10;99.90;;;;;;6230594;23;20447;-80
2023/07/20 07:08:12;;;;;;;5.05;1.38;;;17.20;99.90;;;;;;6231530;23;20008;-80
2023/07/20 07:10:38;;;;;;;2.30;1.40;;;17.30;99.90;;;;;;6233463;22;20015;-80
2023/07/20 07:13:04;;;;;;;2.60;1.77;;;17.40;99.90;;;;;;6230894;23;20008;-80
2023/07/20 07:15:30;;;;;;;2.50;1.60;;;17.50;99.90;;;;;;6233950;22;20012;-80
2023/07/20 07:17:56;;;;;;;2.40;1.60;;;17.60;99.90;;;;;;6233688;22;20000;-79
2023/07/20 07:20:22;;;;;;;3.13;1.75;;;17.80;99.90;;;;;;6232887;22;20015;-80
2023/07/20 07:22:47;;;;;;;3.17;1.42;;;17.90;99.90;;;;;;6233249;22;20083;-80
2023/07/20 07:25:14;;;;;;;2.78;1.80;;;18.00;99.90;;;;;;6232380;22;20050;-80
2023/07/20 07:27:39;;;;;;;3.28;1.60;;;18.10;99.90;;;;;;6230297;23;20016;-79
2023/07/20 07:30:06;;;;;;;2.65;1.67;;;18.20;99.90;;;;;;6232989;22;20455;-79
2023/07/20 07:32:31;;;;;;;2.30;1.75;;;18.40;99.90;;;;;;6223184;22;20237;-79
2023/07/20 07:34:58;;;;;;;3.08;1.65;;;18.70;99.90;;;;;;6223834;23;20019;-79
2023/07/20 07:37:24;;;;;;;2.17;1.55;;;19.00;99.90;;;;;;6228076;22;20032;-80
2023/07/20 07:39:49;;;;;;;3.22;1.55;;;19.70;99.90;;;;;;6226164;23;20082;-79
2023/07/20 07:42:15;;;;;;;2.05;1.40;;;20.20;99.90;;;;;;6227416;23;20031;-80
2023/07/20 07:44:40;;;;;;;3.05;1.65;;;20.80;99.90;;;;;;6227364;23;20008;-79
2023/07/20 07:47:06;;;;;;;2.40;1.25;;;23.00;99.90;;;;;;6230484;22;20040;-80
2023/07/20 07:49:32;;;;;;;2.15;1.45;;;25.50;99.70;;;;;;6227259;22;20789;-79
2023/07/20 07:51:58;;;;;;;2.17;1.02;;;28.10;88.70;;;;;;6233112;22;20000;-79
2023/07/20 07:54:23;;;;;;;2.63;1.13;;;30.50;69.60;;;;;;6232466;22;20011;-81
2023/07/20 07:56:49;;;;;;;1.33;0.80;;;32.60;60.40;;;;;;6229034;23;20004;-79
2023/07/20 07:59:14;;;;;;;2.35;0.80;;;34.20;53.60;;;;;;6227875;23;20012;-81
2023/07/20 08:01:40;;;;;;;2.65;1.05;;;35.40;51.40;;;;;;6229283;22;20356;-79
2023/07/20 08:04:06;;;;;;;1.58;0.70;;;36.70;47.50;;;;;;6228423;22;20000;-80
2023/07/20 08:06:31;;;;;;;1.95;0.60;;;37.40;44.90;;;;;;6228222;22;20039;-79
2023/07/20 08:08:57;;;;;;;3.10;0.95;;;38.00;44.00;;;;;;6230484;22;20425;-79
2023/07/20 08:11:23;;;;;;;1.40;0.90;;;38.80;41.10;;;;;;6230377;22;20075;-79
2023/07/20 08:13:49;;;;;;;1.73;0.70;;;39.50;40.60;;;;;;6229700;22;20003;-79
2023/07/20 08:16:15;;;;;;;1.42;0.80;;;40.00;39.60;;;;;;6229768;22;20076;-80
2023/07/20 08:18:40;;;;;;;1.13;0.55;;;39.10;36.90;;;;;;6226905;22;20027;-80
2023/07/20 08:21:06;;;;;;;3.08;0.80;;;39.80;38.60;;;;;;6226922;22;20019;-80
2023/07/20 08:23:31;;;;;;;1.25;0.60;;;40.30;37.90;;;;;;6226650;22;20077;-80
2023/07/20 08:25:57;;;;;;;2.67;0.90;;;40.80;36.30;;;;;;6228517;22;20004;-80
2023/07/20 08:28:23;;;;;;;3.15;0.60;;;40.90;35.10;;;;;;6229376;22;20027;-81
2023/07/20 08:30:49;;;;;;;0.98;0.50;;;41.40;36.30;;;;;;6228302;22;20432;-81
2023/07/20 08:33:17;;;;;;;3.10;0.60;;;41.80;34.90;;;;;;6226648;22;20008;-80
2023/07/20 08:35:43;;;;;;;0.63;0.50;;;42.20;35.30;;;;;;6227023;22;20575;-81
2023/07/20 08:38:09;;;;;;;1.25;0.45;;;42.20;33.20;;;;;;6228577;23;20043;-81
2023/07/20 08:40:40;;;;;;;0.68;0.55;;;42.40;34.50;;;;;;6228269;22;20019;-80
2023/07/20 08:43:06;;;;;;;1.10;0.88;;;42.60;34.60;;;;;;6226811;22;20020;-80
2023/07/20 08:45:34;;;;;;;1.92;0.75;;;42.90;35.00;;;;;;6227075;23;20020;-80
2023/07/20 08:48:01;;;;;;;1.67;0.80;;;43.20;32.00;;;;;;6226160;23;20012;-79
2023/07/20 08:50:30;;;;;;;1.77;0.65;;;43.70;32.10;;;;;;6229047;22;20103;-80
2023/07/20 08:52:58;;;;;;;0.90;0.60;;;43.80;31.00;;;;;;6231690;22;20118;-79
2023/07/20 08:55:24;;;;;;;1.95;0.60;;;43.60;31.50;;;;;;6232776;22;20432;-80
2023/07/20 08:58:00;;;;;;;1.85;0.65;;;42.20;31.70;;;;;;6230196;22;20270;-80
2023/07/20 09:00:29;;;;;;;1.40;0.50;;;39.20;34.50;;;;;;6231915;22;20261;-79
2023/07/20 09:02:55;;;;;;;2.03;0.70;;;36.30;38.10;;;;;;6229460;22;20700;-80
2023/07/20 09:05:23;;;;;;;1.23;0.50;;;33.70;40.20;;;;;;6230772;22;20039;-81
2023/07/20 09:07:49;;;;;;;1.20;0.50;;;31.40;43.60;;;;;;6232765;22;20000;-80
2023/07/20 09:10:15;;;;;;;2.92;0.60;;;29.60;46.80;;;;;;6230835;23;20157;-79
2023/07/20 09:12:42;;;;;;;1.00;0.63;;;28.10;49.70;;;;;;6230664;22;20334;-79
2023/07/20 09:15:09;;;;;;;1.60;0.77;;;27.10;51.60;;;;;;6230435;22;20018;-79
2023/07/20 09:17:35;;;;;;;1.40;0.60;;;26.50;56.90;;;;;;6229507;23;20035;-78
2023/07/20 09:20:07;;;;;;;0.75;0.50;;;26.00;56.50;;;;;;6232357;22;20004;-82
2023/07/20 09:22:34;;;;;;;1.45;0.82;;;26.00;59.90;;;;;;6235175;22;20095;-81
2023/07/20 09:25:00;;;;;;;2.38;0.50;;;29.10;56.40;;;;;;6234496;22;20008;-84
2023/07/20 09:27:37;;;;;;;3.13;0.70;;;33.20;47.50;;;;;;6233444;22;20368;-83
2023/07/20 09:30:04;;;;;;;0.98;0.50;;;37.10;39.90;;;;;;6235762;22;20019;-84
2023/07/20 09:32:29;;;;;;;2.38;0.50;;;38.00;38.20;;;;;;6235022;22;20004;-83
2023/07/20 09:34:55;;;;;;;1.20;0.50;;;38.70;38.00;;;;;;6233332;23;20259;-81
2023/07/20 09:37:24;;;;;;;0.60;0.47;;;40.20;35.70;;;;;;6234999;22;20004;-84
2023/07/20 09:39:53;;;;;;;1.85;0.63;;;42.10;32.60;;;;;;6234445;22;20033;-84
2023/07/20 09:42:20;;;;;;;1.40;0.60;;;43.50;31.00;;;;;;6233773;22;20023;-83
2023/07/20 09:44:46;;;;;;;1.50;0.60;;;44.50;30.60;;;;;;6230830;23;20012;-84
2023/07/20 09:47:12;;;;;;;3.05;0.70;;;45.00;30.60;;;;;;6232168;23;20074;-83
2023/07/20 09:49:41;;;;;;;2.05;0.50;;;44.50;29.60;;;;;;6233983;22;20073;-82
2023/07/20 09:52:11;;;;;;;1.50;0.47;;;43.30;30.90;;;;;;6231375;23;20022;-84
2023/07/20 09:54:40;;;;;;;;;;;40.70;31.60;;;;;;6233275;22;20040;-85
2023/07/20 09:57:08;;;;;;;1.73;0.63;;;37.90;33.80;;;;;;6232346;23;19903;-82
2023/07/20 09:59:34;;;;;;;2.15;0.60;;;37.20;36.10;;;;;;6230381;23;20079;-84
2023/07/20 10:02:04;;;;;;;5.57;0.82;;;38.50;34.30;;;;;;6230062;23;20022;-82
2023/07/20 10:04:33;;;;;;;1.20;0.45;;;36.90;34.60;;;;;;6229169;23;20042;-83
2023/07/20 10:07:05;;;;;;;4.10;1.08;;;35.50;38.30;;;;;;6233964;22;20016;-84
2023/07/20 10:09:32;;;;;;;1.92;0.70;;;34.70;38.50;;;;;;6233991;23;20058;-83
2023/07/20 10:11:59;;;;;;;1.38;0.50;;;33.10;41.50;;;;;;6232009;23;20005;-84
2023/07/20 10:14:27;;;;;;;2.88;0.70;;;31.80;41.80;;;;;;6233183;23;20004;-84
2023/07/20 10:16:58;;;;;;;1.80;0.80;;;30.60;44.80;;;;;;6240981;23;20506;-88
2023/07/20 10:19:46;;;;;;;1.75;0.90;;;29.80;45.00;;;;;;6240843;22;19997;-88
2023/07/20 10:22:15;;;;;;;4.45;0.80;;;29.20;46.70;;;;;;6235330;23;20103;-88
2023/07/20 10:24:44;;;;;;;1.00;0.60;;;31.40;44.90;;;;;;6236926;22;20000;-87
2023/07/20 10:27:10;;;;;;;1.98;0.60;;;34.90;39.90;;;;;;6238850;22;20008;-87
2023/07/20 10:29:36;;;;;;;1.15;0.57;;;36.90;35.00;;;;;;6235367;22;20062;-87
2023/07/20 10:32:02;;;;;;;0.75;0.50;;;39.10;33.80;;;;;;6234956;23;20612;-86
2023/07/20 10:34:28;;;;;;;1.58;0.60;;;41.00;31.90;;;;;;6237126;22;20416;-85
2023/07/20 10:36:54;;;;;;;1.20;0.57;;;41.90;30.90;;;;;;6237136;22;20043;-84
2023/07/20 10:39:30;;;;;;;1.08;0.40;;;41.60;29.40;;;;;;6237435;22;20304;-86
2023/07/20 10:42:06;;;;;;;0.93;0.70;;;43.10;30.50;;;;;;6235117;22;20012;-85
2023/07/20 10:44:32;;;;;;;1.30;0.70;;;43.90;28.80;;;;;;6237870;22;20019;-85
2023/07/20 10:47:02;;;;;;;1.08;0.57;;;42.80;29.30;;;;;;6236486;22;20016;-84
2023/07/20 10:49:28;;;;;;;0.65;0.35;;;39.80;29.90;;;;;;6232676;23;20015;-83
2023/07/20 10:52:01;;;;;;;0.98;0.63;;;37.20;33.20;;;;;;6233486;22;20016;-82
2023/07/20 10:54:27;;;;;;;5.85;0.80;;;34.70;35.60;;;;;;6230541;23;20085;-83
2023/07/20 10:56:54;;;;;;;1.85;0.50;;;33.20;37.90;;;;;;6233627;23;20102;-82
2023/07/20 10:59:37;;;;;;;2.17;0.55;;;34.50;38.20;;;;;;6231996;23;20008;-82
2023/07/20 11:02:06;;;;;;;0.85;0.40;;;36.80;36.80;;;;;;6230723;23;20051;-83
2023/07/20 11:04:44;;;;;;;1.17;0.60;;;36.70;34.50;;;;;;6234299;22;20076;-81
2023/07/20 11:07:15;;;;;;;1.65;0.60;;;36.40;35.50;;;;;;6233146;23;20008;-83
2023/07/20 11:09:42;;;;;;;2.08;0.63;;;35.50;35.10;;;;;;6235864;22;20008;-83
2023/07/20 11:12:12;;;;;;;0.73;0.60;;;34.40;36.10;;;;;;6234566;22;20007;-83
2023/07/20 11:14:54;;;;;;;1.33;0.63;;;34.30;36.80;;;;;;6233232;23;20008;-83
2023/07/20 11:17:22;;;;;;;1.08;0.57;;;34.10;35.20;;;;;;6232094;23;20062;-83
2023/07/20 11:19:56;;;;;;;1.30;0.63;;;33.10;37.70;;;;;;6233037;23;20091;-83
2023/07/20 11:22:22;;;;;;;2.72;0.60;;;31.90;40.00;;;;;;6234551;22;20012;-82
2023/07/20 11:24:51;;;;;;;1.45;0.50;;;30.80;40.30;;;;;;6230520;23;20070;-83
2023/07/20 11:27:19;;;;;;;2.10;0.65;;;29.90;41.40;;;;;;6232127;22;20023;-83
2023/07/20 11:29:45;;;;;;;0.63;0.50;;;29.10;44.30;;;;;;6232365;23;20313;-82
2023/07/20 11:32:11;;;;;;;3.28;1.00;;;28.50;44.90;;;;;;6233874;22;20633;-83
2023/07/20 11:34:37;;;;;;;1.15;0.70;;;28.00;45.30;;;;;;6231782;23;20012;-82
2023/07/20 11:37:03;;;;;;;1.83;0.73;;;27.50;46.10;;;;;;6232890;22;20000;-83
2023/07/20 11:39:29;;;;;;;1.83;0.98;;;27.40;48.70;;;;;;6233429;23;20004;-83
2023/07/20 11:41:56;;;;;;;1.70;0.80;;;27.80;50.60;;;;;;6241428;22;20070;-89
2023/07/20 11:44:29;;;;;;;2.63;0.82;;;28.60;47.50;;;;;;6239285;23;20407;-85
2023/07/20 11:47:05;;;;;;;3.08;0.73;;;29.30;47.50;;;;;;6236910;22;20020;-87
2023/07/20 11:49:36;;;;;;;1.17;0.40;;;29.40;41.80;;;;;;6235007;22;20000;-85
2023/07/20 11:52:02;;;;;;;1.23;0.63;;;29.70;43.70;;;;;;6236043;22;20004;-85
2023/07/20 11:54:28;;;;;;;0.90;0.70;;;30.00;43.90;;;;;;6237509;22;20011;-83
2023/07/20 11:56:55;;;;;;;1.00;0.50;;;29.80;43.90;;;;;;6237217;22;20004;-84
2023/07/20 11:59:21;;;;;;;1.13;0.60;;;29.50;42.40;;;;;;6237594;22;20008;-84
2023/07/20 12:01:47;;;;;;;3.03;0.90;;;30.10;45.40;;;;;;6235020;22;20462;-82
2023/07/20 12:04:13;;;;;;;1.17;0.77;;;31.00;45.90;;;;;;6234802;22;19996;-84
2023/07/20 12:06:38;;;;;;;1.80;0.80;;;30.90;42.60;;;;;;6234469;22;20012;-82
2023/07/20 12:09:04;;;;;;;1.20;0.70;;;30.20;42.60;;;;;;6235076;22;20075;-82
2023/07/20 12:11:32;;;;;;;2.85;0.80;;;29.40;44.40;;;;;;6234467;22;20004;-84
2023/07/20 12:13:58;;;;;;;3.42;0.85;;;28.30;44.00;;;;;;6233747;23;20008;-83
2023/07/20 12:16:27;;;;;;;1.48;0.70;;;27.50;48.00;;;;;;6236297;22;20007;-82
2023/07/20 12:19:00;;;;;;;1.05;0.60;;;26.80;48.70;;;;;;6235279;22;20030;-83
2023/07/20 12:21:26;;;;;;;1.00;0.65;;;26.20;50.10;;;;;;6232787;22;20167;-82
2023/07/20 12:23:52;;;;;;;2.50;0.88;;;25.70;50.50;;;;;;6230631;23;20031;-84
2023/07/20 12:26:17;;;;;;;2.30;0.82;;;25.40;52.60;;;;;;6232231;22;20603;-82
2023/07/20 12:28:43;;;;;;;1.20;0.70;;;25.20;52.50;;;;;;6237049;22;20004;-86
2023/07/20 12:31:10;;;;;;;1.15;0.65;;;25.40;53.40;;;;;;6237577;22;20413;-86
2023/07/20 12:33:36;;;;;;;0.95;0.70;;;25.70;51.30;;;;;;6237665;23;20012;-85
2023/07/20 12:36:02;;;;;;;1.55;0.80;;;26.40;52.40;;;;;;6238912;23;20016;-86
2023/07/20 12:38:30;;;;;;;2.17;0.80;;;26.90;49.40;;;;;;6237633;22;19996;-86
2023/07/20 12:40:56;;;;;;;1.38;0.73;;;27.60;51.00;;;;;;6235180;23;20356;-88
2023/07/20 12:43:22;;;;;;;1.65;0.60;;;28.40;48.30;;;;;;6237195;22;20000;-85